Time;durP1;ratioP1;P1;durP2;ratioP2;P2;SDS_P1;SDS_P2;PMS_P1;PMS_P2;Temp;Humidity;BMP_temperature;BMP_pressure;BME280_temperature;BME280_humidity;BME280_pressure;Samples;Min_cycle;Max_cycle;Signal;HPM_P1;HPM_P2
2023/08/17 00:00:09;;;;;;;2.63;1.40;;;;;;;22.46;58.38;101788.13;5034688;27;102869;-49
2023/08/17 00:02:35;;;;;;;4.40;1.13;;;;;;;22.45;58.33;101783.84;5033486;27;97168;-49
2023/08/17 00:05:00;;;;;;;2.40;1.30;;;;;;;22.46;58.36;101779.72;5035569;27;96950;-49
2023/08/17 00:07:26;;;;;;;1.10;1.00;;;;;;;22.47;58.20;101781.25;5037208;27;97290;-50
2023/08/17 00:09:51;;;;;;;1.00;0.90;;;;;;;22.48;58.21;101771.50;5032215;27;97305;-49
2023/08/17 00:12:16;;;;;;;1.50;1.10;;;;;;;22.49;58.22;101775.84;5033594;27;97234;-48
2023/08/17 00:14:42;;;;;;;1.90;1.53;;;;;;;;;;5034068;27;96801;-50
2023/08/17 00:17:07;;;;;;;1.30;1.20;;;;;;;22.48;58.13;101756.72;5034804;27;98003;-50
2023/08/17 00:19:32;;;;;;;2.20;1.43;;;;;;;22.46;58.22;101765.69;5035123;27;99363;-49
2023/08/17 00:21:58;;;;;;;2.57;1.10;;;;;;;22.45;58.27;101763.47;5037460;27;96950;-49
2023/08/17 00:24:23;;;;;;;4.27;1.20;;;;;;;22.44;58.34;101761.94;5034123;27;96890;-49
2023/08/17 00:26:48;;;;;;;3.50;1.33;;;;;;;22.42;58.26;101753.31;5035785;27;96822;-51
2023/08/17 00:29:14;;;;;;;1.30;1.10;;;;;;;22.45;58.19;101755.03;5034052;27;97426;-49
2023/08/17 00:31:40;;;;;;;1.80;1.30;;;;;;;22.44;58.18;101751.47;5035521;27;97579;-50
2023/08/17 00:34:06;;;;;;;3.60;1.13;;;;;;;22.48;58.29;101753.94;5033836;27;97082;-51
2023/08/17 00:36:31;;;;;;;2.13;1.43;;;;;;;22.50;58.17;101754.16;5036510;27;96931;-49
2023/08/17 00:38:56;;;;;;;3.33;1.73;;;;;;;22.49;58.19;101752.63;5035864;27;97719;-50
2023/08/17 00:41:22;;;;;;;1.63;1.00;;;;;;;22.50;58.37;101748.53;5035887;27;96842;-50
2023/08/17 00:43:47;;;;;;;1.90;1.33;;;;;;;22.55;58.33;101747.63;5034771;27;97184;-47
2023/08/17 00:46:12;;;;;;;1.57;1.03;;;;;;;22.56;58.13;101749.91;5033873;27;97063;-50
2023/08/17 00:48:38;;;;;;;3.03;1.23;;;;;;;22.57;58.02;101742.22;5035795;27;97251;-51
2023/08/17 00:51:03;;;;;;;2.90;1.40;;;;;;;22.54;58.06;101744.06;5033777;27;97055;-49
2023/08/17 00:53:31;;;;;;;2.00;1.30;;;;;;;22.53;58.15;101742.56;5034006;27;96797;-50
2023/08/17 00:55:57;;;;;;;6.10;1.43;;;;;;;22.53;57.89;101745.38;5033294;27;96765;-48
2023/08/17 00:58:23;;;;;;;4.63;1.33;;;;;;;22.55;58.07;101753.25;5032864;27;97159;-49
2023/08/17 01:00:48;;;;;;;4.97;1.40;;;;;;;22.57;57.94;101754.19;5034977;27;97211;-50
2023/08/17 01:03:15;;;;;;;3.03;1.27;;;;;;;22.60;57.92;101758.00;5033910;27;96753;-51
2023/08/17 01:05:40;;;;;;;3.07;1.23;;;;;;;22.62;58.03;101761.00;5031428;27;97185;-50
2023/08/17 01:08:05;;;;;;;2.60;1.27;;;;;;;22.62;57.83;101761.75;5032547;27;97092;-50
2023/08/17 01:10:54;;;;;;;3.33;1.47;;;;;;;22.59;57.71;101762.06;5032778;27;97867;-49
2023/08/17 01:13:33;;;;;;;3.30;1.40;;;;;;;22.58;58.04;101755.72;5026220;27;97255;-49
2023/08/17 01:16:02;;;;;;;3.53;1.20;;;;;;;22.62;57.76;101761.00;5032873;27;96870;-48
2023/08/17 01:18:37;;;;;;;3.80;1.40;;;;;;;22.58;57.73;101760.56;5034191;27;97386;-50
2023/08/17 01:21:06;;;;;;;2.83;1.50;;;;;;;22.57;57.81;101756.25;5034809;27;98021;-50
2023/08/17 01:23:31;;;;;;;3.53;1.47;;;;;;;22.53;57.79;101765.03;5041559;27;97202;-49
2023/08/17 01:25:57;;;;;;;3.23;1.17;;;;;;;22.47;57.77;101749.63;5031389;27;96784;-51
2023/08/17 01:28:23;;;;;;;4.67;1.60;;;;;;;22.48;57.81;101757.50;5031626;27;97299;-48
2023/08/17 01:31:05;;;;;;;2.93;1.17;;;;;;;22.50;57.55;101748.53;5037734;27;96803;-50
2023/08/17 01:33:56;;;;;;;1.83;1.20;;;;;;;22.47;57.34;101747.59;5032683;27;97338;-49
2023/08/17 01:36:39;;;;;;;1.50;1.00;;;;;;;22.47;57.46;101741.22;5032291;27;96703;-49
2023/08/17 01:39:07;;;;;;;3.53;1.17;;;;;;;22.48;57.67;101749.06;5034738;27;98017;-50
2023/08/17 01:41:33;;;;;;;3.67;1.20;;;;;;;22.49;57.76;101752.63;5032328;27;97476;-50
2023/08/17 01:44:00;;;;;;;2.90;1.37;;;;;;;22.48;57.95;101757.50;5033128;27;96975;-50
2023/08/17 01:46:30;;;;;;;2.77;1.50;;;;;;;22.50;58.15;101765.38;5036523;27;96772;-51
2023/08/17 01:48:56;;;;;;;2.13;1.20;;;;;;;22.51;58.05;101761.25;5035097;27;98028;-51
2023/08/17 01:51:21;;;;;;;2.80;1.33;;;;;;;22.48;58.30;101748.31;5035063;27;97722;-48
2023/08/17 01:53:47;;;;;;;1.90;1.27;;;;;;;22.50;58.29;101751.34;5031491;27;96617;-51
2023/08/17 01:56:12;;;;;;;1.43;1.10;;;;;;;22.50;58.68;101754.16;5033946;27;97390;-50
2023/08/17 01:58:37;;;;;;;1.83;1.07;;;;;;;22.53;58.75;101753.03;5034583;27;96634;-50
2023/08/17 02:01:03;;;;;;;1.93;1.20;;;;;;;22.51;58.74;101761.25;5029901;27;108307;-51
2023/08/17 02:03:28;;;;;;;2.33;1.30;;;;;;;22.49;58.84;101770.22;5032395;27;97260;-52
2023/08/17 02:05:58;;;;;;;2.80;1.40;;;;;;;22.46;58.96;101767.75;5036975;27;96773;-50
2023/08/17 02:08:23;;;;;;;2.60;1.50;;;;;;;22.43;59.03;101766.81;5032674;27;96942;-51
2023/08/17 02:10:48;;;;;;;1.20;1.10;;;;;;;22.39;59.32;101764.34;5037060;27;97284;-49
2023/08/17 02:13:15;;;;;;;1.47;1.37;;;;;;;22.41;59.51;101768.66;5032399;27;98597;-49
2023/08/17 02:15:40;;;;;;;1.30;1.20;;;;;;;22.39;59.48;101769.19;5034109;27;97125;-50
2023/08/17 02:18:06;;;;;;;3.17;1.77;;;;;;;22.37;59.67;101766.19;5030324;27;96924;-51
2023/08/17 02:20:31;;;;;;;1.97;1.33;;;;;;;22.36;59.67;101768.25;5031036;27;97265;-49
2023/08/17 02:22:56;;;;;;;1.80;1.23;;;;;;;22.32;59.70;101773.44;5032513;27;96898;-50
2023/08/17 02:25:22;;;;;;;1.90;1.57;;;;;;;22.27;59.81;101765.94;5032351;27;96929;-50
2023/08/17 02:27:47;;;;;;;3.07;1.53;;;;;;;22.22;59.83;101764.00;5031335;27;98010;-49
2023/08/17 02:30:13;;;;;;;3.87;1.70;;;;;;;22.16;60.02;101765.44;5032881;27;96695;-49
2023/08/17 02:32:38;;;;;;;4.97;1.80;;;;;;;22.11;60.30;101757.91;5035215;27;97106;-49
2023/08/17 02:35:04;;;;;;;6.10;1.47;;;;;;;22.13;60.36;101767.28;5035926;27;96898;-49
2023/08/17 02:37:30;;;;;;;1.87;1.67;;;;;;;22.11;60.46;101767.09;5034666;27;97291;-50
2023/08/17 02:39:55;;;;;;;1.70;1.20;;;;;;;22.08;60.49;101759.75;5037295;27;104044;-49
2023/08/17 02:42:20;;;;;;;1.63;1.47;;;;;;;22.04;60.69;101764.97;5036084;27;97061;-51
2023/08/17 02:44:46;;;;;;;2.37;1.60;;;;;;;22.01;60.68;101754.84;5034762;27;97027;-50
2023/08/17 02:47:11;;;;;;;2.20;1.50;;;;;;;21.94;60.87;101749.94;5036143;27;97554;-50
2023/08/17 02:49:36;;;;;;;2.40;1.73;;;;;;;21.86;60.96;101749.09;5034705;27;97111;-51
2023/08/17 02:52:02;;;;;;;1.40;1.30;;;;;;;21.80;61.09;101733.69;5036819;27;96846;-50
2023/08/17 02:54:27;;;;;;;2.10;1.53;;;;;;;21.74;61.27;101747.06;5034195;27;96865;-51
2023/08/17 02:56:52;;;;;;;2.33;1.57;;;;;;;21.72;61.38;101738.44;5032761;27;106826;-50
2023/08/17 02:59:18;;;;;;;4.00;1.33;;;;;;;21.67;61.33;101737.28;5036564;27;96503;-49
2023/08/17 03:01:45;;;;;;;8.53;1.60;;;;;;;21.67;61.45;101734.47;5037729;27;96836;-50
2023/08/17 03:04:10;;;;;;;3.00;1.63;;;;;;;21.64;61.62;101727.91;5035546;27;97269;-49
2023/08/17 03:06:36;;;;;;;2.63;1.50;;;;;;;21.61;61.64;101737.41;5037449;27;97381;-50
2023/08/17 03:09:02;;;;;;;3.17;1.93;;;;;;;21.59;61.62;101726.00;5037701;27;96966;-49
2023/08/17 03:11:27;;;;;;;2.57;1.17;;;;;;;21.54;61.72;101723.31;5036003;27;97206;-50
2023/08/17 03:13:55;;;;;;;6.80;1.67;;;;;;;21.49;61.72;101721.41;5036224;27;97174;-49
2023/08/17 03:16:20;;;;;;;1.60;1.47;;;;;;;21.45;61.96;101723.75;5036264;27;96828;-50
2023/08/17 03:18:47;;;;;;;2.30;1.27;;;;;;;21.47;62.12;101718.41;5033288;27;97125;-50
2023/08/17 03:21:13;;;;;;;2.40;1.33;;;;;;;21.42;62.07;101722.81;5035980;27;96918;-48
2023/08/17 03:23:38;;;;;;;3.10;1.60;;;;;;;21.40;62.25;101722.63;5036102;27;98602;-49
2023/08/17 03:26:03;;;;;;;3.20;1.70;;;;;;;21.44;62.31;101725.06;5034619;27;97073;-49
2023/08/17 03:28:29;;;;;;;3.27;1.43;;;;;;;21.42;62.27;101713.66;5037465;27;96728;-50
2023/08/17 03:30:55;;;;;;;2.30;1.53;;;;;;;21.44;62.45;101714.63;5036433;27;97497;-49
2023/08/17 03:33:21;;;;;;;1.63;1.30;;;;;;;21.42;62.37;101711.63;5034824;27;96704;-49
2023/08/17 03:35:46;;;;;;;3.73;1.40;;;;;;;21.38;62.26;101716.78;5034553;27;97313;-48
2023/08/17 03:38:11;;;;;;;2.33;1.83;;;;;;;21.34;62.37;101712.84;5035444;27;97245;-48
2023/08/17 03:40:37;;;;;;;3.57;1.67;;;;;;;21.30;62.47;101704.75;5038477;27;96994;-50
2023/08/17 03:43:02;;;;;;;3.40;1.70;;;;;;;21.25;62.54;101707.69;5036318;27;96765;-50
2023/08/17 03:45:29;;;;;;;2.23;1.37;;;;;;;21.23;62.59;101705.41;5034879;27;96550;-48
2023/08/17 03:47:54;;;;;;;1.63;1.53;;;;;;;21.18;62.82;101695.09;5039132;27;97203;-49
2023/08/17 03:50:19;;;;;;;5.73;1.40;;;;;;;21.14;62.74;101696.72;5028529;27;98065;-48
2023/08/17 03:52:45;;;;;;;3.73;1.60;;;;;;;21.04;62.95;101698.44;5036171;27;97106;-49
2023/08/17 03:55:10;;;;;;;2.70;1.30;;;;;;;21.03;63.04;101694.91;5032588;27;108414;-48
2023/08/17 03:57:35;;;;;;;2.40;1.40;;;;;;;21.05;63.07;101694.38;5036603;27;96844;-49
2023/08/17 04:00:01;;;;;;;4.53;1.77;;;;;;;21.04;63.16;101704.03;5040314;27;97172;-48
2023/08/17 04:02:26;;;;;;;2.43;1.50;;;;;;;21.01;63.27;101689.09;5042700;27;97423;-48
2023/08/17 04:04:51;;;;;;;2.70;1.30;;;;;;;21.00;63.27;101686.81;5036078;27;97061;-49
2023/08/17 04:07:23;;;;;;;4.00;2.00;;;;;;;20.93;63.53;101683.38;5035793;27;97094;-49
2023/08/17 04:09:48;;;;;;;3.20;2.17;;;;;;;20.83;63.28;101676.72;5036534;27;97043;-49
2023/08/17 04:12:14;;;;;;;3.43;1.73;;;;;;;20.79;63.56;101690.25;5029057;27;97048;-49
2023/08/17 04:14:39;;;;;;;4.10;1.90;;;;;;;20.78;63.60;101688.00;5032670;27;97083;-49
2023/08/17 04:17:05;;;;;;;2.23;1.77;;;;;;;20.74;63.76;101688.34;5030211;27;97274;-49
2023/08/17 04:19:30;;;;;;;2.70;1.50;;;;;;;20.68;64.10;101690.50;5032545;27;96956;-49
2023/08/17 04:21:55;;;;;;;2.80;1.80;;;;;;;20.66;63.81;101690.25;5036734;27;97051;-49
2023/08/17 04:24:21;;;;;;;1.63;1.53;;;;;;;20.64;64.12;101695.66;5033187;27;97268;-49
2023/08/17 04:26:46;;;;;;;2.40;1.43;;;;;;;20.61;64.16;101695.97;5035385;27;97714;-50
2023/08/17 04:29:11;;;;;;;3.80;1.50;;;;;;;20.59;64.26;101690.16;5034215;27;96814;-49
2023/08/17 04:31:37;;;;;;;3.10;2.20;;;;;;;20.62;64.29;101694.69;5034991;27;97104;-49
2023/08/17 04:34:03;;;;;;;1.60;1.50;;;;;;;20.63;64.32;101702.53;5036134;27;97510;-49
2023/08/17 04:36:28;;;;;;;5.37;1.70;;;;;;;20.66;64.28;101700.72;5038936;27;97517;-49
2023/08/17 04:38:53;;;;;;;3.70;1.90;;;;;;;20.62;64.38;101706.63;5039800;27;96999;-49
2023/08/17 04:41:18;;;;;;;2.23;1.67;;;;;;;20.55;64.40;101704.44;5034291;27;97557;-49
2023/08/17 04:43:46;;;;;;;2.00;1.63;;;;;;;20.56;64.69;101710.81;5035723;27;97227;-49
2023/08/17 04:46:11;;;;;;;3.20;1.47;;;;;;;20.56;64.53;101710.81;5033587;27;97455;-49
2023/08/17 04:48:37;;;;;;;2.63;1.73;;;;;;;20.57;64.42;101707.50;5039833;27;96875;-49
2023/08/17 04:51:02;;;;;;;1.87;1.77;;;;;;;20.55;64.79;101709.31;5035039;27;97386;-49
2023/08/17 04:53:28;;;;;;;1.83;1.60;;;;;;;20.57;64.65;101707.50;5034721;27;96779;-49
2023/08/17 04:55:53;;;;;;;4.87;1.70;;;;;;;20.54;64.87;101707.78;5034879;27;96657;-49
2023/08/17 04:58:18;;;;;;;2.67;1.60;;;;;;;20.51;64.79;101701.22;5037215;27;96717;-49
2023/08/17 05:00:44;;;;;;;1.87;1.77;;;;;;;20.49;65.02;101705.84;5037424;27;97598;-49
2023/08/17 05:03:09;;;;;;;2.03;1.80;;;;;;;20.50;65.01;101708.13;5035349;27;97183;-49
2023/08/17 05:05:35;;;;;;;2.13;2.03;;;;;;;20.52;65.16;101715.97;5037208;27;97145;-49
2023/08/17 05:08:01;;;;;;;2.90;1.67;;;;;;;20.57;65.11;101717.91;5035290;27;97139;-49
2023/08/17 05:10:26;;;;;;;2.77;2.00;;;;;;;20.60;64.81;101722.41;5033246;27;96851;-49
2023/08/17 05:12:52;;;;;;;1.60;1.50;;;;;;;20.61;64.92;101712.75;5036281;27;97056;-49
2023/08/17 05:15:17;;;;;;;5.87;1.40;;;;;;;20.63;64.99;101722.13;5032057;27;98206;-49
2023/08/17 05:17:42;;;;;;;3.00;1.80;;;;;;;20.65;64.90;101716.75;5034712;27;97192;-49
2023/08/17 05:20:08;;;;;;;1.87;1.50;;;;;;;20.67;64.91;101716.19;5036694;27;96851;-49
2023/08/17 05:22:33;;;;;;;3.77;1.80;;;;;;;20.67;64.95;101728.13;5037007;27;96754;-49
2023/08/17 05:24:59;;;;;;;1.70;1.60;;;;;;;20.64;65.15;101723.59;5037288;27;97103;-49
2023/08/17 05:27:24;;;;;;;1.80;1.70;;;;;;;20.64;65.17;101722.88;5039715;27;97367;-49
2023/08/17 05:29:50;;;;;;;1.70;1.57;;;;;;;20.64;65.27;101725.69;5033574;27;98235;-49
2023/08/17 05:32:15;;;;;;;1.87;1.77;;;;;;;20.65;65.29;101719.53;5035601;27;97151;-48
2023/08/17 05:34:40;;;;;;;1.73;1.63;;;;;;;20.70;65.26;101721.47;5043580;27;98446;-49
2023/08/17 05:37:06;;;;;;;2.17;1.53;;;;;;;20.73;65.27;101720.38;5037841;27;97490;-49
2023/08/17 05:39:31;;;;;;;2.10;1.80;;;;;;;20.75;65.25;101725.47;5038039;27;97319;-48
2023/08/17 05:41:56;;;;;;;3.37;1.77;;;;;;;20.74;65.29;101730.31;5035842;27;98020;-49
2023/08/17 05:44:22;;;;;;;5.53;1.60;;;;;;;20.77;65.21;101731.28;5035336;27;97085;-49
2023/08/17 05:46:48;;;;;;;1.83;1.73;;;;;;;20.76;65.28;101736.09;5034665;27;97232;-48
2023/08/17 05:49:14;;;;;;;2.03;1.90;;;;;;;20.75;65.31;101731.06;5035414;27;97082;-49
2023/08/17 05:51:39;;;;;;;1.73;1.63;;;;;;;20.73;65.35;101736.41;5037912;27;97085;-49
2023/08/17 05:54:04;;;;;;;2.20;2.00;;;;;;;20.74;65.45;101732.34;5035402;27;97383;-48
2023/08/17 05:56:30;;;;;;;2.07;1.87;;;;;;;20.76;65.67;101735.34;5035914;27;97219;-49
2023/08/17 05:58:55;;;;;;;2.20;2.00;;;;;;;20.78;65.50;101736.31;5035932;27;96659;-49
2023/08/17 06:01:20;;;;;;;2.13;1.73;;;;;;;20.79;65.51;101737.09;5037505;27;97414;-49
2023/08/17 06:03:45;;;;;;;3.23;1.90;;;;;;;20.82;65.69;101744.38;5033357;27;100210;-49
2023/08/17 06:06:11;;;;;;;2.23;1.80;;;;;;;20.83;65.45;101738.28;5030609;27;97042;-49
2023/08/17 06:08:36;;;;;;;2.30;2.10;;;;;;;20.82;65.49;101736.00;5039923;27;97116;-48
2023/08/17 06:11:02;;;;;;;1.80;1.70;;;;;;;20.82;65.69;101739.53;5036198;27;96838;-49
2023/08/17 06:13:27;;;;;;;4.43;2.03;;;;;;;20.80;65.60;101738.56;5038720;27;97248;-49
2023/08/17 06:15:52;;;;;;;1.90;1.80;;;;;;;20.79;65.86;101740.63;5037084;27;96844;-49
2023/08/17 06:18:18;;;;;;;3.90;2.37;;;;;;;20.83;65.86;101745.91;5036341;27;97118;-49
2023/08/17 06:20:43;;;;;;;3.50;1.80;;;;;;;20.83;65.69;101752.25;5035831;27;97129;-49
2023/08/17 06:23:08;;;;;;;2.13;1.87;;;;;;;20.83;65.91;101751.50;5038004;27;97918;-49
2023/08/17 06:25:34;;;;;;;4.73;1.70;;;;;;;20.82;66.07;101753.53;5036915;27;97128;-49
2023/08/17 06:28:00;;;;;;;2.20;2.00;;;;;;;20.82;65.94;101759.13;5036988;27;97166;-49
2023/08/17 06:30:25;;;;;;;2.30;2.10;;;;;;;20.82;65.99;101756.34;5035037;27;97735;-49
2023/08/17 06:32:51;;;;;;;2.43;2.10;;;;;;;20.84;66.00;101755.78;5037657;27;102408;-49
2023/08/17 06:35:17;;;;;;;2.40;2.20;;;;;;;20.86;66.08;101747.59;5040397;27;97026;-49
2023/08/17 06:37:42;;;;;;;2.10;1.97;;;;;;;20.87;66.11;101749.88;5037994;27;97069;-49
2023/08/17 06:40:11;;;;;;;2.07;1.87;;;;;;;20.87;66.15;101752.69;5040233;27;98168;-49
2023/08/17 06:42:36;;;;;;;4.43;2.20;;;;;;;20.87;66.11;101752.69;5043143;27;96782;-49
2023/08/17 06:45:02;;;;;;;2.43;2.20;;;;;;;20.87;66.27;101757.53;5038654;27;97014;-49
2023/08/17 06:47:27;;;;;;;3.30;2.30;;;;;;;20.86;66.07;101756.75;5037086;27;96797;-49
2023/08/17 06:49:53;;;;;;;1.90;1.80;;;;;;;20.83;66.17;101755.06;5036392;27;97129;-49
2023/08/17 06:52:18;;;;;;;1.60;1.50;;;;;;;20.83;66.21;101755.06;5035734;27;97003;-49
2023/08/17 06:54:43;;;;;;;2.33;2.13;;;;;;;20.84;66.27;101753.75;5038232;27;97086;-49
2023/08/17 06:57:08;;;;;;;2.13;1.87;;;;;;;20.83;66.13;101755.06;5038789;27;96871;-49
2023/08/17 06:59:34;;;;;;;1.73;1.63;;;;;;;20.83;66.23;101754.28;5035342;27;100258;-49
2023/08/17 07:02:00;;;;;;;3.83;1.90;;;;;;;20.80;66.24;101752.56;5038726;27;98578;-48
2023/08/17 07:04:25;;;;;;;2.00;1.90;;;;;;;20.77;66.23;101745.25;5035186;27;96704;-49
2023/08/17 07:06:51;;;;;;;3.23;2.10;;;;;;;20.76;66.30;101747.31;5044174;27;96795;-49
2023/08/17 07:09:16;;;;;;;3.53;1.80;;;;;;;20.78;66.23;101755.91;5035843;27;98166;-49
2023/08/17 07:11:41;;;;;;;2.27;1.80;;;;;;;20.79;66.38;101751.06;5037215;27;96629;-49
2023/08/17 07:14:07;;;;;;;2.50;2.10;;;;;;;20.75;66.29;101756.97;5039022;27;96685;-49
2023/08/17 07:16:32;;;;;;;1.73;1.63;;;;;;;20.67;66.24;101753.31;5033194;27;97230;-49
2023/08/17 07:18:59;;;;;;;2.17;1.90;;;;;;;20.64;66.42;101757.16;5035006;27;97562;-49
2023/08/17 07:21:24;;;;;;;2.63;2.00;;;;;;;20.65;66.51;101760.72;5038093;27;97725;-49
2023/08/17 07:23:50;;;;;;;1.60;1.50;;;;;;;20.62;66.29;101759.03;5038165;27;97059;-49
2023/08/17 07:26:18;;;;;;;2.60;1.67;;;;;;;20.52;66.28;101763.50;5034622;27;97115;-49
2023/08/17 07:28:44;;;;;;;1.70;1.60;;;;;;;20.48;66.43;101763.06;5034490;27;97398;-49
2023/08/17 07:31:09;;;;;;;2.73;1.80;;;;;;;20.47;66.42;101769.94;5039810;27;97254;-49
2023/08/17 07:33:34;;;;;;;1.60;1.50;;;;;;;20.44;66.61;101766.19;5036741;27;96683;-49
2023/08/17 07:36:00;;;;;;;1.70;1.60;;;;;;;20.41;66.49;101772.84;5036476;27;96682;-49
2023/08/17 07:38:25;;;;;;;1.40;1.30;;;;;;;20.38;66.47;101775.97;5032698;27;97058;-50
2023/08/17 07:40:51;;;;;;;1.87;1.67;;;;;;;20.33;66.48;101769.19;5034780;27;96805;-49
2023/08/17 07:43:16;;;;;;;1.50;1.40;;;;;;;20.31;66.62;101768.97;5033994;27;97390;-50
2023/08/17 07:45:41;;;;;;;2.00;1.50;;;;;;;20.29;66.44;101784.75;5032387;27;97084;-50
2023/08/17 07:48:07;;;;;;;1.67;1.57;;;;;;;20.24;66.50;101774.41;5034867;27;98986;-48
2023/08/17 07:50:32;;;;;;;2.83;1.27;;;;;;;20.20;66.75;101777.50;5036124;27;96991;-50
2023/08/17 07:52:57;;;;;;;1.60;1.40;;;;;;;20.15;66.69;101776.28;5036237;27;97006;-50
2023/08/17 07:55:23;;;;;;;1.40;1.30;;;;;;;20.15;66.60;101775.53;5035648;27;97068;-50
2023/08/17 07:57:48;;;;;;;1.70;1.40;;;;;;;20.08;66.55;101773.34;5035094;27;97752;-49
2023/08/17 08:00:14;;;;;;;2.30;1.67;;;;;;;20.09;66.73;101774.88;5036485;27;97213;-50
2023/08/17 08:02:39;;;;;;;1.47;1.20;;;;;;;20.08;66.58;101776.91;5034914;27;97268;-49
2023/08/17 08:05:05;;;;;;;8.47;1.30;;;;;;;20.07;66.69;101777.44;5032810;27;97083;-51
2023/08/17 08:07:32;;;;;;;1.50;1.40;;;;;;;20.08;66.72;101788.09;5035951;27;98126;-49
2023/08/17 08:09:57;;;;;;;1.20;1.10;;;;;;;20.10;66.62;101781.94;5036359;27;97286;-50
2023/08/17 08:12:22;;;;;;;2.10;1.70;;;;;;;20.09;66.71;101792.38;5034756;27;97077;-50
2023/08/17 08:14:48;;;;;;;1.33;1.23;;;;;;;20.08;66.68;101788.09;5038730;27;97236;-49
2023/08/17 08:17:13;;;;;;;1.60;1.50;;;;;;;20.07;66.85;101789.34;5037605;27;96762;-48
2023/08/17 08:19:38;;;;;;;1.30;1.20;;;;;;;20.07;66.61;101799.81;5033674;27;112874;-49
2023/08/17 08:22:04;;;;;;;2.67;1.60;;;;;;;20.06;66.61;101787.88;5031916;27;97627;-49
2023/08/17 08:24:33;;;;;;;2.50;1.50;;;;;;;20.05;66.69;101794.72;5032567;27;97035;-49
2023/08/17 08:26:59;;;;;;;1.33;1.23;;;;;;;20.06;66.51;101803.88;5034265;27;97544;-49
2023/08/17 08:29:24;;;;;;;1.27;1.20;;;;;;;20.03;66.62;101804.91;5036845;27;97287;-49
2023/08/17 08:31:50;;;;;;;1.67;1.00;;;;;;;19.99;66.54;101798.88;5036887;27;97113;-50
2023/08/17 08:34:15;;;;;;;1.83;1.40;;;;;;;19.98;66.46;101798.16;5032769;27;107203;-50
2023/08/17 08:36:40;;;;;;;3.30;1.90;;;;;;;19.98;66.79;101814.16;5036196;27;109381;-48
2023/08/17 08:39:05;;;;;;;2.00;1.47;;;;;;;20.00;66.77;101800.41;5032940;27;102467;-49
2023/08/17 08:41:32;;;;;;;1.33;1.23;;;;;;;20.00;66.53;101806.00;5036896;27;96989;-49
2023/08/17 08:43:57;;;;;;;1.47;1.37;;;;;;;19.99;66.77;101799.66;5031018;27;96860;-49
2023/08/17 08:46:26;;;;;;;1.60;1.50;;;;;;;20.03;66.61;101805.69;5031404;27;97740;-50
2023/08/17 08:48:54;;;;;;;2.63;1.93;;;;;;;20.06;66.68;101798.28;5034855;27;97616;-49
2023/08/17 08:51:25;;;;;;;1.50;1.40;;;;;;;20.08;66.63;101796.47;5037075;27;96698;-50
2023/08/17 08:54:00;;;;;;;1.27;1.17;;;;;;;20.09;66.77;101802.81;5035647;27;96893;-49
2023/08/17 08:56:26;;;;;;;4.63;1.60;;;;;;;20.12;66.84;101798.94;5033324;27;97437;-49
2023/08/17 08:58:52;;;;;;;1.13;1.03;;;;;;;20.12;66.70;101791.31;5035087;27;97713;-49
2023/08/17 09:01:18;;;;;;;1.83;1.53;;;;;;;20.15;66.70;101792.28;5037774;27;97138;-49
2023/08/17 09:03:47;;;;;;;1.70;1.60;;;;;;;20.20;66.75;101797.06;5035659;27;96982;-50
2023/08/17 09:06:14;;;;;;;1.63;1.23;;;;;;;20.25;66.70;101804.59;5034621;27;97061;-49
2023/08/17 09:08:40;;;;;;;1.47;1.37;;;;;;;20.28;66.81;101794.41;5035519;27;97042;-48
2023/08/17 09:11:05;;;;;;;1.50;1.37;;;;;;;20.26;66.81;101799.78;5036129;27;96764;-50
2023/08/17 09:13:31;;;;;;;1.20;1.10;;;;;;;20.25;66.97;101796.22;5032953;27;96892;-48
2023/08/17 09:15:59;;;;;;;1.70;1.47;;;;;;;20.22;66.77;101797.31;5032429;27;97928;-49
2023/08/17 09:18:24;;;;;;;2.47;1.43;;;;;;;20.16;66.79;101799.38;5031811;27;97179;-50
2023/08/17 09:20:51;;;;;;;1.30;1.10;;;;;;;20.16;66.97;101793.78;5034183;27;97038;-50
2023/08/17 09:23:21;;;;;;;3.10;1.40;;;;;;;20.14;66.81;101802.72;5032695;27;97326;-48
2023/08/17 09:25:49;;;;;;;1.67;1.33;;;;;;;20.16;66.75;101800.16;5034352;27;97320;-49
2023/08/17 09:28:17;;;;;;;1.57;1.20;;;;;;;20.13;66.78;101792.09;5033876;27;96788;-49
2023/08/17 09:30:59;;;;;;;1.13;1.13;;;;;;;20.16;67.88;101791.75;5035221;27;97341;-50
2023/08/17 09:33:30;;;;;;;1.97;1.20;;;;;;;20.19;67.24;101787.16;5034157;27;96771;-49
2023/08/17 09:35:57;;;;;;;3.00;1.13;;;;;;;20.25;66.91;101782.25;5031975;27;97135;-49
2023/08/17 09:38:23;;;;;;;1.30;1.20;;;;;;;20.28;66.74;101786.03;5033400;27;97597;-50
2023/08/17 09:40:49;;;;;;;1.17;1.07;;;;;;;20.28;66.53;101784.00;5033700;27;97081;-49
2023/08/17 09:43:15;;;;;;;1.40;1.30;;;;;;;20.27;66.68;101778.94;5034025;27;96860;-48
2023/08/17 09:45:45;;;;;;;1.30;1.20;;;;;;;20.35;66.75;101783.38;5032225;27;97314;-49
2023/08/17 09:48:10;;;;;;;3.90;1.53;;;;;;;20.38;66.65;101781.56;5033347;27;97249;-48
2023/08/17 09:50:36;;;;;;;1.77;1.67;;;;;;;20.37;66.50;101778.00;5032906;27;97093;-48
2023/08/17 09:53:04;;;;;;;1.97;1.60;;;;;;;20.32;66.57;101781.63;5034022;27;97434;-48
2023/08/17 09:55:31;;;;;;;2.50;1.30;;;;;;;20.28;66.63;101781.19;5031121;27;97524;-48
2023/08/17 09:57:57;;;;;;;1.30;1.20;;;;;;;20.27;66.48;101788.06;5037229;27;97658;-48
2023/08/17 10:00:25;;;;;;;1.50;1.40;;;;;;;20.19;66.48;101785.13;5030810;27;97115;-48
2023/08/17 10:02:53;;;;;;;1.20;1.10;;;;;;;20.17;66.54;101790.47;5033132;27;96873;-49
2023/08/17 10:05:23;;;;;;;3.00;1.23;;;;;;;20.15;66.64;101789.50;5032647;27;97012;-50
2023/08/17 10:07:53;;;;;;;1.90;1.20;;;;;;;20.11;66.61;101789.06;5032783;27;96639;-49
2023/08/17 10:10:24;;;;;;;1.33;1.20;;;;;;;20.14;66.66;101793.56;5030991;27;96755;-49
2023/08/17 10:13:06;;;;;;;3.27;1.40;;;;;;;20.17;66.61;101784.13;5034361;27;96701;-49
2023/08/17 10:15:34;;;;;;;1.47;1.03;;;;;;;20.13;66.69;101786.50;5032240;27;97132;-50
2023/08/17 10:18:08;;;;;;;1.93;1.03;;;;;;;20.13;66.66;101792.09;5034211;27;97264;-50
2023/08/17 10:20:35;;;;;;;1.07;0.97;;;;;;;20.11;66.60;101794.66;5033587;27;96746;-50
2023/08/17 10:23:14;;;;;;;4.73;1.23;;;;;;;20.12;66.84;101784.97;5032905;27;96698;-50
2023/08/17 10:25:41;;;;;;;1.50;1.10;;;;;;;20.15;66.54;101786.72;5034527;27;97240;-50
2023/08/17 10:28:09;;;;;;;2.13;1.43;;;;;;;20.10;66.55;101793.88;5036154;27;97461;-49
2023/08/17 10:30:34;;;;;;;1.10;1.10;;;;;;;20.10;66.58;101782.72;5033004;27;96680;-49
2023/08/17 10:33:00;;;;;;;1.93;1.10;;;;;;;20.08;66.46;101784.53;5033419;27;97308;-50
2023/08/17 10:35:26;;;;;;;1.10;1.00;;;;;;;20.09;66.66;101780.47;5030921;27;97259;-49
2023/08/17 10:37:52;;;;;;;1.03;0.90;;;;;;;20.07;66.48;101778.19;5031265;27;96660;-49
2023/08/17 10:40:25;;;;;;;2.40;1.33;;;;;;;20.07;66.62;101780.97;5033114;27;97366;-49
2023/08/17 10:42:57;;;;;;;3.23;1.10;;;;;;;20.12;66.86;101777.34;5032236;27;97047;-49
2023/08/17 10:45:31;;;;;;;1.53;1.43;;;;;;;20.19;66.91;101778.75;5032679;27;97272;-49
2023/08/17 10:48:20;;;;;;;1.23;1.13;;;;;;;20.14;66.73;101780.34;5031891;27;97404;-49
2023/08/17 10:51:00;;;;;;;1.27;1.10;;;;;;;20.15;66.98;101792.28;5032231;27;97066;-49
2023/08/17 10:53:25;;;;;;;1.07;0.97;;;;;;;20.16;66.72;101791.00;5033075;27;97147;-48
2023/08/17 10:55:57;;;;;;;1.40;1.30;;;;;;;20.14;66.60;101788.75;5032827;27;98672;-48
2023/08/17 10:58:22;;;;;;;1.50;1.40;;;;;;;20.14;66.67;101787.97;5036642;27;96736;-49
2023/08/17 11:00:54;;;;;;;1.40;1.30;;;;;;;20.15;66.79;101789.50;5038835;27;97153;-49
2023/08/17 11:03:21;;;;;;;1.20;1.10;;;;;;;20.11;66.62;101791.84;5036966;27;96776;-49
2023/08/17 11:05:53;;;;;;;1.10;0.90;;;;;;;20.07;66.72;101783.78;5036102;27;97543;-50
2023/08/17 11:08:38;;;;;;;2.17;1.80;;;;;;;20.11;67.19;101792.63;5040084;27;96724;-50
2023/08/17 11:11:10;;;;;;;2.53;1.50;;;;;;;20.13;66.86;101792.09;5033364;27;97065;-50
2023/08/17 11:13:44;;;;;;;1.57;1.47;;;;;;;20.11;66.79;101795.41;5035529;27;97053;-50
2023/08/17 11:16:10;;;;;;;1.50;1.20;;;;;;;20.14;67.04;101797.13;5036054;27;97183;-50
2023/08/17 11:18:36;;;;;;;1.23;1.10;;;;;;;20.16;66.99;101807.75;5036301;27;97194;-50
2023/08/17 11:21:06;;;;;;;1.00;1.00;;;;;;;20.16;67.07;101807.75;5037416;27;96842;-50